Lee Hall, Virginia
Current Conditions -  °F | °C
As of 9:58 PM on Thursday 27 Nov 2014 (Local Time) from KFAF Reporting Station
Overcast Overcast  
Wind Chill: 36°   Ceiling: 7000
Heat Index: 41°   Visibility: 10mi
Dew Point: 32°   Wind: 8mph
Humidity: 70%   Direction: 330°NNW
Pressure: 30.17"   Gusts: NA
Location:  37.1935°N, 76.5695°W
Report Text: KFAF 280258Z AUTO 33007KT 10SM OVC070 05/00 A3017 RMK AO2 SLP220 T00491002 52018 $
Loading
Personal Weather Stations






























Interactive Weather Map New forecast layout! Learn more

10-Day Weather Forecast

Advertisements
Track Severe Weather on mobile